sensor_id;sensor_type;location;lat;lon;timestamp;pressure;altitude;pressure_sealevel;temperature;humidity
10474;BME280;5284;50.446;7.904;2024-01-11T00:01:12;99661.75;;;-6.99;100.00
10474;BME280;5284;50.446;7.904;2024-01-11T00:06:15;99656.53;;;-7.03;100.00
10474;BME280;5284;50.446;7.904;2024-01-11T00:11:20;99666.94;;;-6.99;100.00
10474;BME280;5284;50.446;7.904;2024-01-11T00:16:25;99679.03;;;-6.98;100.00
10474;BME280;5284;50.446;7.904;2024-01-11T00:21:28;99674.69;;;-6.99;100.00
10474;BME280;5284;50.446;7.904;2024-01-11T00:26:33;99673.84;;;-7.01;100.00
10474;BME280;5284;50.446;7.904;2024-01-11T00:31:37;99671.22;;;-7.02;100.00
10474;BME280;5284;50.446;7.904;2024-01-11T00:36:41;99673.81;;;-7.05;100.00
10474;BME280;5284;50.446;7.904;2024-01-11T00:41:45;99672.09;;;-7.05;100.00
10474;BME280;5284;50.446;7.904;2024-01-11T00:46:50;99670.38;;;-7.09;100.00
10474;BME280;5284;50.446;7.904;2024-01-11T00:51:54;99674.66;;;-7.09;100.00
10474;BME280;5284;50.446;7.904;2024-01-11T00:56:57;99673.81;;;-7.13;100.00
10474;BME280;5284;50.446;7.904;2024-01-11T01:02:02;99672.91;;;-7.18;100.00
10474;BME280;5284;50.446;7.904;2024-01-11T01:07:05;99685.84;;;-7.24;100.00
10474;BME280;5284;50.446;7.904;2024-01-11T01:12:09;99683.25;;;-7.27;100.00
10474;BME280;5284;50.446;7.904;2024-01-11T01:17:14;99685.81;;;-7.33;100.00
10474;BME280;5284;50.446;7.904;2024-01-11T01:22:18;99684.09;;;-7.34;100.00
10474;BME280;5284;50.446;7.904;2024-01-11T01:27:21;99688.44;;;-7.28;100.00
10474;BME280;5284;50.446;7.904;2024-01-11T01:32:25;99696.16;;;-7.34;100.00
10474;BME280;5284;50.446;7.904;2024-01-11T01:37:28;99693.56;;;-7.42;100.00
10474;BME280;5284;50.446;7.904;2024-01-11T01:42:32;99694.41;;;-7.45;100.00
10474;BME280;5284;50.446;7.904;2024-01-11T01:47:36;99696.16;;;-7.44;100.00
10474;BME280;5284;50.446;7.904;2024-01-11T01:52:42;99711.66;;;-7.46;100.00
10474;BME280;5284;50.446;7.904;2024-01-11T01:57:47;99699.53;;;-7.51;100.00
10474;BME280;5284;50.446;7.904;2024-01-11T02:02:53;99709.94;;;-7.47;100.00
10474;BME280;5284;50.446;7.904;2024-01-11T02:08:00;99708.19;;;-7.49;100.00
10474;BME280;5284;50.446;7.904;2024-01-11T02:13:04;99706.47;;;-7.52;100.00
10474;BME280;5284;50.446;7.904;2024-01-11T02:18:12;99696.94;;;-7.60;100.00
10474;BME280;5284;50.446;7.904;2024-01-11T02:23:17;99695.25;;;-7.54;100.00
10474;BME280;5284;50.446;7.904;2024-01-11T02:28:23;99705.59;;;-7.54;100.00
10474;BME280;5284;50.446;7.904;2024-01-11T02:33:26;99695.22;;;-7.57;100.00
10474;BME280;5284;50.446;7.904;2024-01-11T02:38:29;99706.44;;;-7.53;100.00
10474;BME280;5284;50.446;7.904;2024-01-11T02:43:34;99702.09;;;-7.60;100.00
10474;BME280;5284;50.446;7.904;2024-01-11T02:48:39;99706.44;;;-7.58;100.00
10474;BME280;5284;50.446;7.904;2024-01-11T02:53:43;99709.84;;;-7.63;100.00
10474;BME280;5284;50.446;7.904;2024-01-11T02:58:47;99702.09;;;-7.63;100.00
10474;BME280;5284;50.446;7.904;2024-01-11T03:03:50;99694.28;;;-7.68;100.00
10474;BME280;5284;50.446;7.904;2024-01-11T03:08:55;99702.91;;;-7.69;100.00
10474;BME280;5284;50.446;7.904;2024-01-11T03:13:59;99693.41;;;-7.70;100.00
10474;BME280;5284;50.446;7.904;2024-01-11T03:19:04;99690.84;;;-7.74;100.00
10474;BME280;5284;50.446;7.904;2024-01-11T03:24:08;99693.38;;;-7.82;100.00
10474;BME280;5284;50.446;7.904;2024-01-11T03:29:12;99702.91;;;-7.76;100.00
10474;BME280;5284;50.446;7.904;2024-01-11T03:34:15;99683.91;;;-7.78;100.00
10474;BME280;5284;50.446;7.904;2024-01-11T03:39:19;99674.38;;;-7.84;100.00
10474;BME280;5284;50.446;7.904;2024-01-11T03:44:24;99695.03;;;-7.88;100.00
10474;BME280;5284;50.446;7.904;2024-01-11T03:49:27;99683.00;;;-7.88;100.00
10474;BME280;5284;50.446;7.904;2024-01-11T03:54:30;99680.41;;;-7.86;100.00
10474;BME280;5284;50.446;7.904;2024-01-11T03:59:39;99676.97;;;-7.87;100.00
10474;BME280;5284;50.446;7.904;2024-01-11T04:04:43;99685.53;;;-7.95;100.00
10474;BME280;5284;50.446;7.904;2024-01-11T04:09:46;99682.06;;;-7.97;100.00
10474;BME280;5284;50.446;7.904;2024-01-11T04:14:52;99682.03;;;-8.03;100.00
10474;BME280;5284;50.446;7.904;2024-01-11T04:19:56;99682.00;;;-8.05;100.00
10474;BME280;5284;50.446;7.904;2024-01-11T04:24:59;99673.38;;;-8.11;100.00
10474;BME280;5284;50.446;7.904;2024-01-11T04:30:06;99671.66;;;-8.09;100.00
10474;BME280;5284;50.446;7.904;2024-01-11T04:35:09;99688.03;;;-8.09;100.00
10474;BME280;5284;50.446;7.904;2024-01-11T04:40:14;99683.75;;;-8.05;100.00
10474;BME280;5284;50.446;7.904;2024-01-11T04:45:19;99703.56;;;-8.06;100.00
10474;BME280;5284;50.446;7.904;2024-01-11T04:50:23;99709.63;;;-8.05;100.00
10474;BME280;5284;50.446;7.904;2024-01-11T04:55:26;99699.25;;;-8.08;100.00
10474;BME280;5284;50.446;7.904;2024-01-11T05:00:30;99707.88;;;-8.09;100.00
10474;BME280;5284;50.446;7.904;2024-01-11T05:05:35;99700.94;;;-8.09;100.00
10474;BME280;5284;50.446;7.904;2024-01-11T05:10:39;99704.41;;;-8.11;100.00
10474;BME280;5284;50.446;7.904;2024-01-11T05:15:46;99697.47;;;-8.18;100.00
10474;BME280;5284;50.446;7.904;2024-01-11T05:20:49;99706.09;;;-8.18;100.00
10474;BME280;5284;50.446;7.904;2024-01-11T05:25:53;99708.69;;;-8.21;100.00
10474;BME280;5284;50.446;7.904;2024-01-11T05:31:00;99706.09;;;-8.18;100.00
10474;BME280;5284;50.446;7.904;2024-01-11T05:36:04;99714.66;;;-8.26;100.00
10474;BME280;5284;50.446;7.904;2024-01-11T05:41:07;99722.41;;;-8.26;100.00
10474;BME280;5284;50.446;7.904;2024-01-11T05:46:12;99718.97;;;-8.30;100.00
10474;BME280;5284;50.446;7.904;2024-01-11T05:51:15;99724.13;;;-8.28;100.00
10474;BME280;5284;50.446;7.904;2024-01-11T05:56:20;99733.66;;;-8.23;100.00
10474;BME280;5284;50.446;7.904;2024-01-11T06:01:24;99748.19;;;-8.34;100.00
10474;BME280;5284;50.446;7.904;2024-01-11T06:06:27;99755.94;;;-8.38;100.00
10474;BME280;5284;50.446;7.904;2024-01-11T06:11:32;99763.66;;;-8.41;100.00
10474;BME280;5284;50.446;7.904;2024-01-11T06:16:36;99778.34;;;-8.37;100.00
10474;BME280;5284;50.446;7.904;2024-01-11T06:21:39;99768.81;;;-8.44;100.00
10474;BME280;5284;50.446;7.904;2024-01-11T06:26:42;99779.97;;;-8.47;100.00
10474;BME280;5284;50.446;7.904;2024-01-11T06:31:47;99791.97;;;-8.55;100.00
10474;BME280;5284;50.446;7.904;2024-01-11T06:36:50;99789.34;;;-8.56;100.00
10474;BME280;5284;50.446;7.904;2024-01-11T06:41:55;99805.72;;;-8.59;100.00
10474;BME280;5284;50.446;7.904;2024-01-11T06:47:03;99799.66;;;-8.61;100.00
10474;BME280;5284;50.446;7.904;2024-01-11T06:52:07;99802.28;;;-8.56;100.00
10474;BME280;5284;50.446;7.904;2024-01-11T06:57:10;99803.97;;;-8.58;100.00
10474;BME280;5284;50.446;7.904;2024-01-11T07:02:15;99803.13;;;-8.57;100.00
10474;BME280;5284;50.446;7.904;2024-01-11T07:07:20;99809.13;;;-8.63;100.00
10474;BME280;5284;50.446;7.904;2024-01-11T07:12:23;99816.88;;;-8.61;100.00
10474;BME280;5284;50.446;7.904;2024-01-11T07:17:27;99810.78;;;-8.66;100.00
10474;BME280;5284;50.446;7.904;2024-01-11T07:22:31;99813.31;;;-8.72;100.00
10474;BME280;5284;50.446;7.904;2024-01-11T07:27:35;99815.00;;;-8.73;100.00
10474;BME280;5284;50.446;7.904;2024-01-11T07:32:39;99809.88;;;-8.70;100.00
10474;BME280;5284;50.446;7.904;2024-01-11T07:37:42;99789.25;;;-8.67;100.00
10474;BME280;5284;50.446;7.904;2024-01-11T07:42:45;99792.78;;;-8.57;100.00
10474;BME280;5284;50.446;7.904;2024-01-11T07:47:50;99774.81;;;-8.48;100.00
10474;BME280;5284;50.446;7.904;2024-01-11T07:52:53;99788.69;;;-8.37;100.00
10474;BME280;5284;50.446;7.904;2024-01-11T07:57:58;99799.06;;;-8.34;100.00
10474;BME280;5284;50.446;7.904;2024-01-11T08:03:03;99795.72;;;-8.21;100.00
10474;BME280;5284;50.446;7.904;2024-01-11T08:08:08;99813.91;;;-8.08;100.00
10474;BME280;5284;50.446;7.904;2024-01-11T08:13:12;99819.16;;;-7.97;100.00
10474;BME280;5284;50.446;7.904;2024-01-11T08:18:18;99830.56;;;-7.77;100.00
10474;BME280;5284;50.446;7.904;2024-01-11T08:23:21;99828.09;;;-7.56;100.00
10474;BME280;5284;50.446;7.904;2024-01-11T08:28:24;99830.69;;;-7.56;100.00
10474;BME280;5284;50.446;7.904;2024-01-11T08:33:28;99837.75;;;-7.35;100.00
10474;BME280;5284;50.446;7.904;2024-01-11T08:38:31;99849.06;;;-7.15;100.00
10474;BME280;5284;50.446;7.904;2024-01-11T08:43:35;99845.72;;;-6.99;100.00
10474;BME280;5284;50.446;7.904;2024-01-11T08:48:40;99833.72;;;-6.73;100.00
10474;BME280;5284;50.446;7.904;2024-01-11T08:53:43;99844.16;;;-6.55;100.00
10474;BME280;5284;50.446;7.904;2024-01-11T08:58:46;99840.75;;;-6.31;100.00
10474;BME280;5284;50.446;7.904;2024-01-11T09:03:51;99840.81;;;-6.03;100.00
10474;BME280;5284;50.446;7.904;2024-01-11T09:08:57;99831.28;;;-5.71;100.00
10474;BME280;5284;50.446;7.904;2024-01-11T09:14:00;99832.97;;;-5.39;100.00
10474;BME280;5284;50.446;7.904;2024-01-11T09:19:06;99844.19;;;-5.28;100.00
10474;BME280;5284;50.446;7.904;2024-01-11T09:24:09;99832.03;;;-5.03;100.00
10474;BME280;5284;50.446;7.904;2024-01-11T09:29:13;99834.50;;;-4.76;100.00
10474;BME280;5284;50.446;7.904;2024-01-11T09:34:17;99834.50;;;-4.70;100.00
10474;BME280;5284;50.446;7.904;2024-01-11T09:39:22;99843.03;;;-4.42;100.00
10474;BME280;5284;50.446;7.904;2024-01-11T09:44:26;99856.72;;;-4.07;100.00
10474;BME280;5284;50.446;7.904;2024-01-11T09:49:31;99847.78;;;-3.76;100.00
10474;BME280;5284;50.446;7.904;2024-01-11T09:54:36;99851.91;;;-3.48;100.00
10474;BME280;5284;50.446;7.904;2024-01-11T09:59:44;99853.41;;;-3.20;100.00
10474;BME280;5284;50.446;7.904;2024-01-11T10:04:49;99839.16;;;-2.89;100.00
10474;BME280;5284;50.446;7.904;2024-01-11T10:09:54;99850.09;;;-2.59;100.00
10474;BME280;5284;50.446;7.904;2024-01-11T10:15:05;99828.03;;;-2.34;100.00
10474;BME280;5284;50.446;7.904;2024-01-11T10:20:11;99827.78;;;-2.17;100.00
10474;BME280;5284;50.446;7.904;2024-01-11T10:25:16;99831.72;;;-1.89;100.00
10474;BME280;5284;50.446;7.904;2024-01-11T10:30:19;99827.09;;;-1.72;100.00
10474;BME280;5284;50.446;7.904;2024-01-11T10:35:25;99828.44;;;-1.48;100.00
10474;BME280;5284;50.446;7.904;2024-01-11T10:40:28;99811.00;;;-0.99;100.00
10474;BME280;5284;50.446;7.904;2024-01-11T10:45:31;99812.97;;;-0.69;96.70
10474;BME280;5284;50.446;7.904;2024-01-11T10:50:44;99813.00;;;-0.28;96.38
10474;BME280;5284;50.446;7.904;2024-01-11T10:55:50;99802.09;;;-0.10;89.77
10474;BME280;5284;50.446;7.904;2024-01-11T11:00:54;99809.44;;;0.12;88.01
10474;BME280;5284;50.446;7.904;2024-01-11T11:06:00;99802.31;;;0.54;87.27
10474;BME280;5284;50.446;7.904;2024-01-11T11:11:04;99804.88;;;0.89;85.08
10474;BME280;5284;50.446;7.904;2024-01-11T11:16:08;99796.81;;;0.96;80.86
10474;BME280;5284;50.446;7.904;2024-01-11T11:21:14;99794.97;;;1.30;79.56
10474;BME280;5284;50.446;7.904;2024-01-11T11:26:17;99782.22;;;1.76;79.66
10474;BME280;5284;50.446;7.904;2024-01-11T11:31:37;99784.19;;;2.24;80.10
10474;BME280;5284;50.446;7.904;2024-01-11T11:36:45;99789.41;;;2.52;76.47
10474;BME280;5284;50.446;7.904;2024-01-11T11:41:52;99777.78;;;3.32;88.67
10474;BME280;5284;50.446;7.904;2024-01-11T11:47:18;99780.75;;;3.23;76.51
10474;BME280;5284;50.446;7.904;2024-01-11T11:52:22;99777.59;;;4.05;78.92
10474;BME280;5284;50.446;7.904;2024-01-11T11:57:27;99780.69;;;4.79;91.50
10474;BME280;5284;50.446;7.904;2024-01-11T12:02:32;99786.56;;;5.25;97.67
10474;BME280;5284;50.446;7.904;2024-01-11T12:07:39;99777.97;;;5.59;97.32
10474;BME280;5284;50.446;7.904;2024-01-11T12:12:42;99774.88;;;5.88;97.58
10474;BME280;5284;50.446;7.904;2024-01-11T12:17:45;99767.72;;;6.26;95.71
10474;BME280;5284;50.446;7.904;2024-01-11T12:22:50;99767.84;;;6.23;98.78
10474;BME280;5284;50.446;7.904;2024-01-11T12:27:53;99764.75;;;5.59;77.67
10474;BME280;5284;50.446;7.904;2024-01-11T12:32:56;99764.28;;;5.31;71.48
10474;BME280;5284;50.446;7.904;2024-01-11T12:38:04;99755.84;;;4.83;67.82
10474;BME280;5284;50.446;7.904;2024-01-11T12:43:07;99744.03;;;4.30;67.09
10474;BME280;5284;50.446;7.904;2024-01-11T12:48:10;99738.75;;;4.30;71.99
10474;BME280;5284;50.446;7.904;2024-01-11T12:53:17;99736.16;;;3.86;69.97
10474;BME280;5284;50.446;7.904;2024-01-11T12:58:22;99739.56;;;3.43;72.46
10474;BME280;5284;50.446;7.904;2024-01-11T13:03:26;99734.56;;;3.36;75.50
10474;BME280;5284;50.446;7.904;2024-01-11T13:08:33;99734.75;;;3.08;76.10
10474;BME280;5284;50.446;7.904;2024-01-11T13:13:38;99734.50;;;2.92;77.59
10474;BME280;5284;50.446;7.904;2024-01-11T13:18:41;99747.13;;;2.82;80.07
10474;BME280;5284;50.446;7.904;2024-01-11T13:23:47;99747.50;;;2.72;78.92
10474;BME280;5284;50.446;7.904;2024-01-11T13:28:49;99745.97;;;2.65;79.96
10474;BME280;5284;50.446;7.904;2024-01-11T13:33:54;99752.31;;;2.59;80.97
10474;BME280;5284;50.446;7.904;2024-01-11T13:39:02;99764.06;;;2.49;82.66
10474;BME280;5284;50.446;7.904;2024-01-11T13:44:05;99758.00;;;2.47;85.18
10474;BME280;5284;50.446;7.904;2024-01-11T13:49:09;99761.38;;;2.51;86.89
10474;BME280;5284;50.446;7.904;2024-01-11T13:54:14;99751.16;;;2.42;85.45
10474;BME280;5284;50.446;7.904;2024-01-11T13:59:17;99740.75;;;2.37;84.52
10474;BME280;5284;50.446;7.904;2024-01-11T14:04:21;99741.75;;;2.35;85.31
10474;BME280;5284;50.446;7.904;2024-01-11T14:09:26;99746.84;;;2.13;84.04
10474;BME280;5284;50.446;7.904;2024-01-11T14:14:30;99733.59;;;2.16;84.95
10474;BME280;5284;50.446;7.904;2024-01-11T14:19:33;99740.50;;;2.19;86.72
10474;BME280;5284;50.446;7.904;2024-01-11T14:24:38;99724.81;;;2.16;88.83
10474;BME280;5284;50.446;7.904;2024-01-11T14:29:42;99735.84;;;2.01;85.89
10474;BME280;5284;50.446;7.904;2024-01-11T14:34:46;99734.94;;;2.02;88.93
10474;BME280;5284;50.446;7.904;2024-01-11T14:39:52;99722.94;;;1.93;89.65
10474;BME280;5284;50.446;7.904;2024-01-11T14:44:58;99721.63;;;1.80;86.40
10474;BME280;5284;50.446;7.904;2024-01-11T14:50:01;99726.16;;;1.75;89.71
10474;BME280;5284;50.446;7.904;2024-01-11T14:55:14;99730.88;;;1.64;88.48
10474;BME280;5284;50.446;7.904;2024-01-11T15:00:18;99738.03;;;1.59;90.61
10474;BME280;5284;50.446;7.904;2024-01-11T15:05:24;99735.81;;;1.46;89.06
10474;BME280;5284;50.446;7.904;2024-01-11T15:10:28;99739.75;;;1.32;91.45
10474;BME280;5284;50.446;7.904;2024-01-11T15:15:31;99719.31;;;1.12;94.17
10474;BME280;5284;50.446;7.904;2024-01-11T15:20:34;99725.88;;;0.98;97.61
10474;BME280;5284;50.446;7.904;2024-01-11T15:25:39;99724.50;;;0.85;99.32
10474;BME280;5284;50.446;7.904;2024-01-11T15:30:41;99727.50;;;0.71;100.00
10474;BME280;5284;50.446;7.904;2024-01-11T15:35:45;99724.31;;;0.60;100.00
10474;BME280;5284;50.446;7.904;2024-01-11T15:40:51;99729.91;;;0.47;100.00
10474;BME280;5284;50.446;7.904;2024-01-11T15:45:54;99751.31;;;0.30;100.00
10474;BME280;5284;50.446;7.904;2024-01-11T15:50:57;99751.47;;;0.24;100.00
10474;BME280;5284;50.446;7.904;2024-01-11T15:56:05;99768.38;;;0.13;100.00
10474;BME280;5284;50.446;7.904;2024-01-11T16:01:08;99772.13;;;0.03;100.00
10474;BME280;5284;50.446;7.904;2024-01-11T16:06:12;99784.59;;;-0.08;100.00
10474;BME280;5284;50.446;7.904;2024-01-11T16:11:16;99799.69;;;-0.19;100.00
10474;BME280;5284;50.446;7.904;2024-01-11T16:16:19;99806.97;;;-0.31;100.00
10474;BME280;5284;50.446;7.904;2024-01-11T16:21:22;99808.97;;;-0.44;100.00
10474;BME280;5284;50.446;7.904;2024-01-11T16:26:31;99797.88;;;-0.55;100.00
10474;BME280;5284;50.446;7.904;2024-01-11T16:31:34;99796.22;;;-0.60;100.00
10474;BME280;5284;50.446;7.904;2024-01-11T16:36:37;99806.00;;;-0.68;100.00
10474;BME280;5284;50.446;7.904;2024-01-11T16:41:42;99798.41;;;-0.82;100.00
10474;BME280;5284;50.446;7.904;2024-01-11T16:46:49;99809.03;;;-0.89;100.00
10474;BME280;5284;50.446;7.904;2024-01-11T16:51:52;99816.25;;;-1.00;100.00
10474;BME280;5284;50.446;7.904;2024-01-11T16:56:56;99811.25;;;-1.12;100.00
10474;BME280;5284;50.446;7.904;2024-01-11T17:01:59;99812.28;;;-1.22;100.00
10474;BME280;5284;50.446;7.904;2024-01-11T17:07:02;99823.78;;;-1.31;100.00
10474;BME280;5284;50.446;7.904;2024-01-11T17:12:08;99812.69;;;-1.43;100.00
10474;BME280;5284;50.446;7.904;2024-01-11T17:17:11;99820.69;;;-1.53;100.00
10474;BME280;5284;50.446;7.904;2024-01-11T17:22:14;99816.41;;;-1.59;100.00
10474;BME280;5284;50.446;7.904;2024-01-11T17:27:18;99833.09;;;-1.64;100.00
10474;BME280;5284;50.446;7.904;2024-01-11T17:32:21;99838.38;;;-1.70;100.00
10474;BME280;5284;50.446;7.904;2024-01-11T17:37:25;99839.38;;;-1.76;100.00
10474;BME280;5284;50.446;7.904;2024-01-11T17:42:29;99843.81;;;-1.82;100.00
10474;BME280;5284;50.446;7.904;2024-01-11T17:47:34;99841.28;;;-1.87;100.00
10474;BME280;5284;50.446;7.904;2024-01-11T17:52:37;99837.00;;;-1.92;100.00
10474;BME280;5284;50.446;7.904;2024-01-11T17:57:44;99827.50;;;-1.96;100.00
10474;BME280;5284;50.446;7.904;2024-01-11T18:02:50;99832.78;;;-2.01;100.00
10474;BME280;5284;50.446;7.904;2024-01-11T18:07:53;99835.47;;;-2.07;100.00
10474;BME280;5284;50.446;7.904;2024-01-11T18:12:59;99823.34;;;-2.12;100.00
10474;BME280;5284;50.446;7.904;2024-01-11T18:18:04;99826.09;;;-2.20;100.00
10474;BME280;5284;50.446;7.904;2024-01-11T18:23:09;99817.50;;;-2.28;100.00
10474;BME280;5284;50.446;7.904;2024-01-11T18:28:13;99828.81;;;-2.29;100.00
10474;BME280;5284;50.446;7.904;2024-01-11T18:33:17;99823.69;;;-2.35;100.00
10474;BME280;5284;50.446;7.904;2024-01-11T18:38:20;99827.22;;;-2.37;100.00
10474;BME280;5284;50.446;7.904;2024-01-11T18:43:27;99831.59;;;-2.41;100.00
10474;BME280;5284;50.446;7.904;2024-01-11T18:48:31;99832.50;;;-2.43;100.00
10474;BME280;5284;50.446;7.904;2024-01-11T18:53:35;99833.41;;;-2.47;100.00
10474;BME280;5284;50.446;7.904;2024-01-11T18:58:41;99847.41;;;-2.50;100.00
10474;BME280;5284;50.446;7.904;2024-01-11T19:03:45;99834.38;;;-2.54;100.00
10474;BME280;5284;50.446;7.904;2024-01-11T19:08:48;99844.84;;;-2.56;100.00
10474;BME280;5284;50.446;7.904;2024-01-11T19:13:53;99848.41;;;-2.61;100.00
10474;BME280;5284;50.446;7.904;2024-01-11T19:18:56;99865.88;;;-2.66;100.00
10474;BME280;5284;50.446;7.904;2024-01-11T19:23:59;99863.34;;;-2.72;100.00
10474;BME280;5284;50.446;7.904;2024-01-11T19:29:05;99866.81;;;-2.75;100.00
10474;BME280;5284;50.446;7.904;2024-01-11T19:34:09;99878.16;;;-2.77;100.00
10474;BME280;5284;50.446;7.904;2024-01-11T19:39:12;99884.28;;;-2.81;100.00
10474;BME280;5284;50.446;7.904;2024-01-11T19:44:17;99888.69;;;-2.85;100.00
10474;BME280;5284;50.446;7.904;2024-01-11T19:49:20;99886.13;;;-2.89;100.00
10474;BME280;5284;50.446;7.904;2024-01-11T19:54:23;99873.09;;;-2.94;100.00
10474;BME280;5284;50.446;7.904;2024-01-11T19:59:28;99893.97;;;-2.94;100.00
10474;BME280;5284;50.446;7.904;2024-01-11T20:04:31;99896.66;;;-2.98;100.00
10474;BME280;5284;50.446;7.904;2024-01-11T20:09:34;99893.22;;;-3.03;100.00
10474;BME280;5284;50.446;7.904;2024-01-11T20:14:38;99888.91;;;-3.07;100.00
10474;BME280;5284;50.446;7.904;2024-01-11T20:19:42;99895.94;;;-3.15;100.00
10474;BME280;5284;50.446;7.904;2024-01-11T20:24:45;99885.56;;;-3.21;100.00
10474;BME280;5284;50.446;7.904;2024-01-11T20:29:49;99876.03;;;-3.25;100.00
10474;BME280;5284;50.446;7.904;2024-01-11T20:34:52;99890.00;;;-3.29;100.00
10474;BME280;5284;50.446;7.904;2024-01-11T20:39:56;99877.88;;;-3.34;100.00
10474;BME280;5284;50.446;7.904;2024-01-11T20:45:01;99891.81;;;-3.38;100.00
10474;BME280;5284;50.446;7.904;2024-01-11T20:50:06;99900.50;;;-3.41;100.00
10474;BME280;5284;50.446;7.904;2024-01-11T20:55:09;99904.06;;;-3.51;100.00
10474;BME280;5284;50.446;7.904;2024-01-11T21:00:15;99904.94;;;-3.52;100.00
10474;BME280;5284;50.446;7.904;2024-01-11T21:05:20;99889.34;;;-3.58;100.00
10474;BME280;5284;50.446;7.904;2024-01-11T21:10:24;99903.28;;;-3.62;100.00
10474;BME280;5284;50.446;7.904;2024-01-11T21:15:30;99898.97;;;-3.66;100.00
10474;BME280;5284;50.446;7.904;2024-01-11T21:20:33;99899.03;;;-3.72;100.00
10474;BME280;5284;50.446;7.904;2024-01-11T21:25:36;99897.34;;;-3.80;100.00
10474;BME280;5284;50.446;7.904;2024-01-11T21:30:41;99913.00;;;-3.83;100.00
10474;BME280;5284;50.446;7.904;2024-01-11T21:35:44;99924.31;;;-3.87;100.00
10474;BME280;5284;50.446;7.904;2024-01-11T21:40:48;99924.31;;;-3.92;100.00
10474;BME280;5284;50.446;7.904;2024-01-11T21:45:54;99926.91;;;-3.93;100.00
10474;BME280;5284;50.446;7.904;2024-01-11T21:50:57;99929.59;;;-4.01;100.00
10474;BME280;5284;50.446;7.904;2024-01-11T21:56:05;99941.78;;;-4.07;100.00
10474;BME280;5284;50.446;7.904;2024-01-11T22:01:11;99934.00;;;-4.13;100.00
10474;BME280;5284;50.446;7.904;2024-01-11T22:06:14;99921.88;;;-4.20;100.00
10474;BME280;5284;50.446;7.904;2024-01-11T22:11:17;99916.66;;;-4.22;100.00
10474;BME280;5284;50.446;7.904;2024-01-11T22:16:21;99920.19;;;-4.29;100.00
10474;BME280;5284;50.446;7.904;2024-01-11T22:21:25;99920.19;;;-4.32;100.00
10474;BME280;5284;50.446;7.904;2024-01-11T22:26:30;99920.22;;;-4.44;100.00
10474;BME280;5284;50.446;7.904;2024-01-11T22:31:35;99920.25;;;-4.45;100.00
10474;BME280;5284;50.446;7.904;2024-01-11T22:36:38;99915.06;;;-4.51;100.00
10474;BME280;5284;50.446;7.904;2024-01-11T22:41:41;99927.25;;;-4.59;100.00
10474;BME280;5284;50.446;7.904;2024-01-11T22:46:45;99929.84;;;-4.65;100.00
10474;BME280;5284;50.446;7.904;2024-01-11T22:51:48;99926.41;;;-4.68;100.00
10474;BME280;5284;50.446;7.904;2024-01-11T22:56:51;99922.94;;;-4.72;100.00
10474;BME280;5284;50.446;7.904;2024-01-11T23:01:58;99912.53;;;-4.75;100.00
10474;BME280;5284;50.446;7.904;2024-01-11T23:07:01;99925.53;;;-4.76;100.00
10474;BME280;5284;50.446;7.904;2024-01-11T23:12:05;99924.66;;;-4.78;100.00
10474;BME280;5284;50.446;7.904;2024-01-11T23:17:09;99914.31;;;-4.83;100.00
10474;BME280;5284;50.446;7.904;2024-01-11T23:22:12;99908.25;;;-4.91;100.00
10474;BME280;5284;50.446;7.904;2024-01-11T23:27:15;99909.16;;;-5.02;100.00
10474;BME280;5284;50.446;7.904;2024-01-11T23:32:20;99912.59;;;-5.08;100.00
10474;BME280;5284;50.446;7.904;2024-01-11T23:37:23;99911.75;;;-5.10;100.00
10474;BME280;5284;50.446;7.904;2024-01-11T23:42:26;99904.81;;;-5.15;100.00
10474;BME280;5284;50.446;7.904;2024-01-11T23:47:31;99906.56;;;-5.19;100.00
10474;BME280;5284;50.446;7.904;2024-01-11T23:52:35;99916.97;;;-5.23;100.00
10474;BME280;5284;50.446;7.904;2024-01-11T23:57:38;99909.19;;;-5.32;100.00
